Aviation Digital Data Service (ADDS)

Output produced by TAFs form (0638 UTC 30 September 2016)
found at http://aviationweather.gov/adds/tafs/
 
KAEG 300530Z 3006/0106 VRB05KT P6SM VCSH SCT070 OVC100 
     FM300800 32005KT P6SM BKN100 
     FM301400 24005KT P6SM SCT100 
     FM302200 27008KT P6SM VCSH SCT070 BKN100 
     FM010300 30005KT P6SM BKN100